createdAt,value
2022-08-30T00:00:30.425Z,36
2022-08-30T00:01:39.690Z,36
2022-08-30T00:02:44.038Z,33
2022-08-30T00:03:48.709Z,33
2022-08-30T00:04:52.773Z,26
2022-08-30T00:05:58.860Z,31
2022-08-30T00:07:03.220Z,25
2022-08-30T00:08:07.452Z,25
2022-08-30T00:09:12.040Z,26
2022-08-30T00:10:16.736Z,32
2022-08-30T00:12:24.699Z,30
2022-08-30T00:13:29.004Z,32
2022-08-30T00:14:33.417Z,30
2022-08-30T00:15:37.719Z,25
2022-08-30T00:16:42.188Z,33
2022-08-30T00:17:46.496Z,32
2022-08-30T00:18:51.440Z,35
2022-08-30T00:19:55.736Z,37
2022-08-30T00:21:00.643Z,42
2022-08-30T00:22:05.364Z,43
2022-08-30T00:23:10.184Z,50
2022-08-30T00:24:14.944Z,41
2022-08-30T00:25:19.784Z,55
2022-08-30T00:26:24.896Z,45
2022-08-30T00:27:29.152Z,47
2022-08-30T00:28:33.376Z,47
2022-08-30T00:29:37.972Z,49
2022-08-30T00:30:42.696Z,49
2022-08-30T00:31:47.365Z,47
2022-08-30T00:32:52.533Z,45
2022-08-30T00:33:57.396Z,46
2022-08-30T00:35:02.060Z,42
2022-08-30T00:36:07.049Z,37
2022-08-30T00:37:11.760Z,36
2022-08-30T00:38:16.028Z,39
2022-08-30T00:39:20.676Z,38
2022-08-30T00:40:27.387Z,32
2022-08-30T00:41:29.660Z,32
2022-08-30T00:42:34.388Z,26
2022-08-30T00:43:39.004Z,26
2022-08-30T00:44:43.848Z,33
2022-08-30T00:45:48.357Z,29
2022-08-30T00:46:52.540Z,30
2022-08-30T00:47:56.762Z,36
2022-08-30T00:49:00.947Z,31
2022-08-30T00:50:05.192Z,36
2022-08-30T00:51:09.996Z,41
2022-08-30T00:52:15.061Z,34
2022-08-30T00:53:19.679Z,35
2022-08-30T00:54:24.305Z,33
2022-08-30T00:55:28.649Z,33
2022-08-30T00:56:33.048Z,25
2022-08-30T00:57:37.412Z,31
2022-08-30T00:58:41.862Z,26
2022-08-30T00:59:46.701Z,30
2022-08-30T01:00:51.036Z,33
2022-08-30T01:01:55.590Z,26
2022-08-30T01:02:59.783Z,36
2022-08-30T01:04:04.157Z,32
2022-08-30T01:05:08.564Z,30
2022-08-30T01:06:13.276Z,32
2022-08-30T01:07:18.188Z,25
2022-08-30T01:08:22.543Z,35
2022-08-30T01:09:26.832Z,33
2022-08-30T01:10:31.056Z,38
2022-08-30T01:11:35.273Z,38
2022-08-30T01:12:39.752Z,38
2022-08-30T01:13:44.260Z,39
2022-08-30T01:14:48.784Z,45
2022-08-30T01:15:53.746Z,43
2022-08-30T01:16:58.721Z,34
2022-08-30T01:18:03.005Z,36
2022-08-30T01:19:07.348Z,38
2022-08-30T01:20:11.613Z,38
2022-08-30T01:21:16.097Z,38
2022-08-30T01:22:28.465Z,37
2022-08-30T01:23:35.740Z,31
2022-08-30T01:24:40.050Z,32
2022-08-30T01:25:44.473Z,30
2022-08-30T01:26:48.717Z,25
2022-08-30T01:27:52.933Z,26
2022-08-30T01:28:59.962Z,31
2022-08-30T01:30:06.719Z,30
2022-08-30T01:31:11.298Z,34
2022-08-30T01:32:17.793Z,30
2022-08-30T01:33:20.017Z,30
2022-08-30T01:34:24.241Z,25
2022-08-30T01:35:28.841Z,32
2022-08-30T01:36:33.123Z,33
2022-08-30T01:37:37.957Z,25
2022-08-30T01:38:42.589Z,31
2022-08-30T01:39:47.325Z,34
2022-08-30T01:40:52.237Z,30
2022-08-30T01:41:59.245Z,36
2022-08-30T01:43:03.488Z,46
2022-08-30T01:44:07.850Z,45
2022-08-30T01:45:12.101Z,48
2022-08-30T01:46:17.899Z,36
2022-08-30T01:47:22.181Z,45
2022-08-30T01:48:28.276Z,48
2022-08-30T01:49:32.418Z,47
2022-08-30T01:50:36.969Z,46
2022-08-30T01:51:41.809Z,44
2022-08-30T01:52:46.188Z,39
2022-08-30T01:53:50.465Z,47
2022-08-30T01:54:54.769Z,37
2022-08-30T01:55:59.068Z,39
2022-08-30T01:57:03.369Z,36
2022-08-30T01:58:08.013Z,31
2022-08-30T01:59:12.785Z,25
2022-08-30T02:00:17.505Z,29
2022-08-30T02:01:22.022Z,28
2022-08-30T02:02:26.180Z,31
2022-08-30T02:03:30.598Z,35
2022-08-30T02:04:35.641Z,29
2022-08-30T02:05:40.274Z,30
2022-08-30T02:06:44.543Z,29
2022-08-30T02:07:48.969Z,31
2022-08-30T02:08:53.281Z,28
2022-08-30T02:09:57.913Z,33
2022-08-30T02:11:02.445Z,25
2022-08-30T02:12:06.733Z,39
2022-08-30T02:13:10.969Z,34
2022-08-30T02:15:18.713Z,44
2022-08-30T02:16:23.238Z,40
2022-08-30T02:17:27.917Z,40
2022-08-30T02:18:32.422Z,41
2022-08-30T02:19:36.848Z,43
2022-08-30T02:20:42.576Z,49
2022-08-30T02:21:47.062Z,41
2022-08-30T02:22:51.963Z,40
2022-08-30T02:23:56.317Z,34
2022-08-30T02:25:01.245Z,34
2022-08-30T02:26:06.090Z,38
2022-08-30T02:27:10.896Z,33
2022-08-30T02:28:15.456Z,38
2022-08-30T02:30:23.787Z,30
2022-08-30T02:31:29.477Z,29
2022-08-30T02:32:34.093Z,32
2022-08-30T02:33:38.630Z,36
2022-08-30T02:34:42.741Z,35
2022-08-30T02:35:47.096Z,37
2022-08-30T02:36:51.557Z,33
2022-08-30T02:37:55.817Z,30
2022-08-30T02:39:00.057Z,29
2022-08-30T02:40:04.977Z,28
2022-08-30T02:41:09.469Z,30
2022-08-30T02:42:13.672Z,25
2022-08-30T02:43:18.084Z,33
2022-08-30T02:44:22.209Z,29
2022-08-30T02:45:26.484Z,25
2022-08-30T02:46:33.220Z,25
2022-08-30T02:47:35.423Z,28
2022-08-30T02:48:39.969Z,30
2022-08-30T02:49:44.700Z,25
2022-08-30T02:50:49.292Z,28
2022-08-30T02:51:53.512Z,28
2022-08-30T02:52:58.093Z,26
2022-08-30T02:54:02.576Z,26
2022-08-30T02:55:07.040Z,30
2022-08-30T02:56:11.524Z,32
2022-08-30T02:57:20.418Z,29
2022-08-30T02:58:20.104Z,32
2022-08-30T02:59:24.364Z,40
2022-08-30T03:00:28.658Z,33
2022-08-30T03:01:33.242Z,38
2022-08-30T03:02:37.684Z,38
2022-08-30T03:03:42.181Z,42
2022-08-30T03:04:46.691Z,37
2022-08-30T03:05:51.114Z,39
2022-08-30T03:06:55.680Z,37
2022-08-30T03:08:00.448Z,29
2022-08-30T03:09:04.856Z,28
2022-08-30T03:10:09.297Z,26
2022-08-30T03:11:14.130Z,29
2022-08-30T03:12:18.832Z,30
2022-08-30T03:13:23.262Z,31
2022-08-30T03:14:27.500Z,32
2022-08-30T03:15:31.913Z,30
2022-08-30T03:16:36.442Z,30
2022-08-30T03:17:40.836Z,25
2022-08-30T03:19:49.009Z,38
2022-08-30T03:20:54.322Z,31
2022-08-30T03:21:58.236Z,37
2022-08-30T03:23:02.732Z,41
2022-08-30T03:24:08.165Z,37
2022-08-30T03:25:12.810Z,33
2022-08-30T03:26:17.224Z,39
2022-08-30T03:28:24.968Z,36
2022-08-30T03:29:29.245Z,44
2022-08-30T03:30:33.460Z,40
2022-08-30T03:31:40.693Z,37
2022-08-30T03:32:42.028Z,41
2022-08-30T03:33:46.345Z,34
2022-08-30T03:34:50.588Z,31
2022-08-30T03:35:55.020Z,29
2022-08-30T03:36:59.480Z,31
2022-08-30T03:38:04.057Z,28
2022-08-30T03:39:08.365Z,25
2022-08-30T03:40:12.982Z,27
2022-08-30T03:41:17.306Z,27
2022-08-30T03:42:21.964Z,42
2022-08-30T03:43:26.377Z,55
2022-08-30T03:44:31.093Z,65
2022-08-30T03:45:35.583Z,66
2022-08-30T03:46:39.957Z,86
2022-08-30T03:47:44.228Z,72
2022-08-30T03:48:48.709Z,80
2022-08-30T03:49:53.417Z,79
2022-08-30T03:50:57.912Z,91
2022-08-30T03:52:02.545Z,78
2022-08-30T03:53:07.105Z,75
2022-08-30T03:54:11.585Z,81
2022-08-30T03:55:16.005Z,70
2022-08-30T03:56:20.542Z,72
2022-08-30T03:57:25.029Z,68
2022-08-30T03:58:30.240Z,72
2022-08-30T03:59:34.748Z,69
2022-08-30T04:00:39.206Z,60
2022-08-30T04:01:43.469Z,61
2022-08-30T04:02:47.701Z,52
2022-08-30T04:03:52.272Z,53
2022-08-30T04:04:56.697Z,57
2022-08-30T04:06:01.055Z,48
2022-08-30T04:07:05.438Z,51
2022-08-30T04:08:09.837Z,53
2022-08-30T04:09:14.228Z,43
2022-08-30T04:10:18.928Z,50
2022-08-30T04:11:23.452Z,48
2022-08-30T04:12:27.941Z,58
2022-08-30T04:13:32.276Z,53
2022-08-30T04:14:36.632Z,43
2022-08-30T04:15:41.008Z,41
2022-08-30T04:16:46.148Z,38
2022-08-30T04:17:50.457Z,43
2022-08-30T04:18:54.852Z,35
2022-08-30T04:19:59.340Z,36
2022-08-30T04:21:03.684Z,43
2022-08-30T04:22:08.064Z,38
2022-08-30T04:23:12.508Z,32
2022-08-30T04:24:16.932Z,39
2022-08-30T04:25:21.716Z,43
2022-08-30T04:26:27.605Z,38
2022-08-30T04:27:30.588Z,37
2022-08-30T04:28:34.828Z,34
2022-08-30T04:29:39.368Z,37
2022-08-30T04:30:43.581Z,34
2022-08-30T04:31:47.845Z,32
2022-08-30T04:32:54.474Z,34
2022-08-30T04:33:57.097Z,34
2022-08-30T04:35:01.913Z,40
2022-08-30T04:36:06.792Z,35
2022-08-30T04:37:11.397Z,25
2022-08-30T04:38:15.653Z,33
2022-08-30T04:39:19.949Z,30
2022-08-30T04:40:24.613Z,33
2022-08-30T04:41:29.033Z,30
2022-08-30T04:42:33.500Z,34
2022-08-30T04:43:38.078Z,29
2022-08-30T04:44:42.300Z,29
2022-08-30T04:45:46.589Z,28
2022-08-30T04:46:50.812Z,27
2022-08-30T04:47:56.410Z,33
2022-08-30T04:49:00.232Z,36
2022-08-30T04:50:04.686Z,25
2022-08-30T04:51:09.596Z,29
2022-08-30T04:52:13.952Z,31
2022-08-30T04:53:18.509Z,28
2022-08-30T04:54:23.044Z,29
2022-08-30T04:55:27.444Z,30
2022-08-30T04:56:31.845Z,29
2022-08-30T04:57:36.756Z,33
2022-08-30T04:58:41.233Z,36
2022-08-30T04:59:45.717Z,37
2022-08-30T05:00:50.243Z,41
2022-08-30T05:01:54.775Z,37
2022-08-30T05:04:02.492Z,37
2022-08-30T05:05:07.928Z,42
2022-08-30T05:06:17.923Z,43
2022-08-30T05:08:25.848Z,40
2022-08-30T05:09:30.075Z,42
2022-08-30T05:10:34.676Z,40
2022-08-30T05:11:38.965Z,37
2022-08-30T05:12:43.174Z,39
2022-08-30T05:13:47.713Z,38
2022-08-30T05:15:55.821Z,44
2022-08-30T05:17:00.281Z,46
2022-08-30T05:18:04.588Z,40
2022-08-30T05:19:09.076Z,42
2022-08-30T05:20:13.596Z,37
2022-08-30T05:21:18.200Z,37
2022-08-30T05:22:22.888Z,37
2022-08-30T05:23:27.249Z,46
2022-08-30T05:24:31.881Z,43
2022-08-30T05:25:36.228Z,43
2022-08-30T05:26:40.836Z,45
2022-08-30T05:27:45.268Z,49
2022-08-30T05:28:50.960Z,36
2022-08-30T05:29:55.792Z,39
2022-08-30T05:31:00.238Z,40
2022-08-30T05:32:04.472Z,39
2022-08-30T05:33:09.124Z,43
2022-08-30T05:34:14.400Z,37
2022-08-30T05:35:22.276Z,43
2022-08-30T05:36:23.812Z,43
2022-08-30T05:37:28.156Z,44
2022-08-30T05:38:32.473Z,52
2022-08-30T05:39:45.016Z,48
2022-08-30T05:40:41.847Z,44
2022-08-30T05:41:47.844Z,42
2022-08-30T05:42:52.477Z,46
2022-08-30T05:43:56.828Z,47
2022-08-30T05:45:01.452Z,50
2022-08-30T05:47:09.532Z,49
2022-08-30T05:48:13.938Z,47
2022-08-30T05:49:18.349Z,51
2022-08-30T05:51:26.385Z,46
2022-08-30T05:52:30.728Z,49
2022-08-30T05:53:37.788Z,54
2022-08-30T05:54:42.211Z,65
2022-08-30T05:55:46.519Z,50
2022-08-30T05:56:50.888Z,50
2022-08-30T05:57:55.112Z,51
2022-08-30T05:58:59.448Z,60
2022-08-30T06:00:03.776Z,49
2022-08-30T06:01:13.932Z,41
2022-08-30T06:02:26.124Z,49
2022-08-30T06:03:30.431Z,41
2022-08-30T06:05:38.338Z,36
2022-08-30T06:06:42.575Z,34
2022-08-30T06:07:47.187Z,36
2022-08-30T06:08:51.467Z,33
2022-08-30T06:09:55.763Z,35
2022-08-30T06:11:00.399Z,32
2022-08-30T06:12:04.803Z,33
2022-08-30T06:14:12.896Z,38
2022-08-30T06:15:17.836Z,42
2022-08-30T06:16:22.572Z,39
2022-08-30T06:17:26.880Z,38
2022-08-30T06:18:31.252Z,32
2022-08-30T06:19:35.740Z,37
2022-08-30T06:20:40.487Z,31
2022-08-30T06:21:44.740Z,31
2022-08-30T06:22:49.013Z,29
2022-08-30T06:23:53.232Z,33
2022-08-30T06:24:58.343Z,36
2022-08-30T06:26:03.307Z,36
2022-08-30T06:27:08.000Z,36
2022-08-30T06:29:16.739Z,32
2022-08-30T06:30:21.332Z,35
2022-08-30T06:31:25.949Z,36
2022-08-30T06:32:30.427Z,37
2022-08-30T06:33:35.095Z,39
2022-08-30T06:34:39.639Z,38
2022-08-30T06:35:56.971Z,32
2022-08-30T06:36:48.837Z,41
2022-08-30T06:37:53.658Z,51
2022-08-30T06:38:58.073Z,43
2022-08-30T06:40:02.406Z,37
2022-08-30T06:41:06.957Z,40
2022-08-30T06:42:11.570Z,38
2022-08-30T06:43:17.844Z,36
2022-08-30T06:44:22.663Z,31
2022-08-30T06:45:27.367Z,38
2022-08-30T06:46:31.818Z,38
2022-08-30T06:48:41.465Z,35
2022-08-30T06:49:45.393Z,33
2022-08-30T06:50:50.107Z,40
2022-08-30T06:51:54.561Z,38
2022-08-30T06:52:58.849Z,30
2022-08-30T06:54:03.148Z,34
2022-08-30T06:55:07.448Z,30
2022-08-30T06:56:16.612Z,29
2022-08-30T06:57:29.761Z,27
2022-08-30T06:58:44.001Z,28
2022-08-30T06:59:48.468Z,31
2022-08-30T07:00:55.754Z,35
2022-08-30T07:02:00.075Z,29
2022-08-30T07:03:05.539Z,30
2022-08-30T07:05:50.845Z,36
2022-08-30T07:06:56.328Z,33
2022-08-30T07:08:04.680Z,31
2022-08-30T07:09:09.161Z,34
2022-08-30T07:10:13.698Z,36
2022-08-30T07:11:18.233Z,32
2022-08-30T07:12:31.050Z,31
2022-08-30T07:13:35.489Z,32
2022-08-30T07:14:41.886Z,35
2022-08-30T07:15:46.608Z,34
2022-08-30T07:16:52.217Z,33
2022-08-30T07:17:56.729Z,29
2022-08-30T07:19:06.337Z,29
2022-08-30T07:20:10.630Z,25
2022-08-30T07:21:15.051Z,34
2022-08-30T07:22:19.440Z,38
2022-08-30T07:23:24.190Z,32
2022-08-30T07:24:28.973Z,34
2022-08-30T07:25:33.502Z,33
2022-08-30T07:26:40.906Z,29
2022-08-30T07:27:45.671Z,34
2022-08-30T07:28:50.576Z,30
2022-08-30T07:29:54.579Z,31
2022-08-30T07:30:59.194Z,25
2022-08-30T07:32:03.561Z,31
2022-08-30T07:33:08.161Z,26
2022-08-30T07:34:12.693Z,43
2022-08-30T07:35:17.130Z,29
2022-08-30T07:36:21.558Z,33
2022-08-30T07:37:25.935Z,34
2022-08-30T07:38:30.614Z,49
2022-08-30T07:39:39.281Z,36
2022-08-30T07:40:39.652Z,32
2022-08-30T07:41:43.930Z,28
2022-08-30T07:42:48.446Z,25
2022-08-30T07:43:53.206Z,37
2022-08-30T07:44:57.864Z,39
2022-08-30T07:46:02.667Z,33
2022-08-30T07:47:07.298Z,27
2022-08-30T07:48:11.721Z,38
2022-08-30T07:49:16.394Z,38
2022-08-30T07:50:20.626Z,37
2022-08-30T07:51:25.214Z,38
2022-08-30T07:52:30.778Z,30
2022-08-30T07:53:34.132Z,35
2022-08-30T07:54:38.594Z,40
2022-08-30T07:55:43.134Z,36
2022-08-30T07:56:47.729Z,46
2022-08-30T07:57:53.009Z,41
2022-08-30T07:58:58.779Z,33
2022-08-30T08:00:03.310Z,29
2022-08-30T08:01:08.421Z,28
2022-08-30T08:02:12.997Z,25
2022-08-30T08:03:17.906Z,31
2022-08-30T08:04:22.598Z,39
2022-08-30T08:05:27.027Z,32
2022-08-30T08:06:34.589Z,35
2022-08-30T08:07:35.930Z,25
2022-08-30T08:08:40.447Z,34
2022-08-30T08:09:44.860Z,25
2022-08-30T08:10:49.535Z,32
2022-08-30T08:11:54.097Z,30
2022-08-30T08:12:58.729Z,30
2022-08-30T08:14:03.356Z,28
2022-08-30T08:15:08.862Z,37
2022-08-30T08:16:12.492Z,36
2022-08-30T08:17:17.176Z,26
2022-08-30T08:18:22.038Z,37
2022-08-30T08:19:26.274Z,37
2022-08-30T08:20:30.939Z,29
2022-08-30T08:21:35.431Z,29
2022-08-30T08:22:40.324Z,31
2022-08-30T08:23:44.259Z,30
2022-08-30T08:24:49.144Z,36
2022-08-30T08:25:54.265Z,37
2022-08-30T08:26:59.168Z,44
2022-08-30T08:28:03.977Z,43
2022-08-30T08:29:08.756Z,32
2022-08-30T08:30:13.524Z,35
2022-08-30T08:31:21.587Z,31
2022-08-30T08:32:26.530Z,29
2022-08-30T08:33:31.193Z,35
2022-08-30T08:34:36.004Z,27
2022-08-30T08:36:44.072Z,28
2022-08-30T08:37:48.431Z,33
2022-08-30T08:38:53.223Z,25
2022-08-30T08:39:57.881Z,30
2022-08-30T08:41:03.771Z,39
2022-08-30T08:42:13.722Z,40
2022-08-30T08:43:26.153Z,30
2022-08-30T08:44:34.369Z,41
2022-08-30T08:45:42.929Z,27
2022-08-30T08:46:52.395Z,34
2022-08-30T08:48:07.353Z,33
2022-08-30T08:49:11.811Z,40
2022-08-30T08:50:17.283Z,34
2022-08-30T08:51:20.877Z,36
2022-08-30T08:52:30.367Z,36
2022-08-30T08:53:45.345Z,37
2022-08-30T08:54:49.249Z,41
2022-08-30T08:55:53.865Z,41
2022-08-30T08:56:58.740Z,41
2022-08-30T08:58:03.328Z,37
2022-08-30T08:59:07.774Z,42
2022-08-30T09:00:12.556Z,38
2022-08-30T09:01:17.093Z,43
2022-08-30T09:02:23.809Z,40
2022-08-30T09:03:28.827Z,38
2022-08-30T09:04:34.073Z,48
2022-08-30T09:05:38.460Z,42
2022-08-30T09:06:44.995Z,46
2022-08-30T09:07:55.556Z,42
2022-08-30T09:09:00.171Z,33
2022-08-30T09:10:04.524Z,37
2022-08-30T09:11:09.004Z,53
2022-08-30T09:12:13.360Z,39
2022-08-30T09:13:18.919Z,39
2022-08-30T09:14:22.460Z,29
2022-08-30T09:15:27.011Z,38
2022-08-30T09:16:31.795Z,50
2022-08-30T09:17:46.806Z,32
2022-08-30T09:18:57.374Z,27
2022-08-30T09:20:01.849Z,31
2022-08-30T09:21:06.594Z,37
2022-08-30T09:22:11.069Z,34
2022-08-30T09:23:20.636Z,28
2022-08-30T09:24:28.173Z,30
2022-08-30T09:25:41.256Z,35
2022-08-30T09:26:55.244Z,42
2022-08-30T09:27:59.781Z,39
2022-08-30T09:29:09.949Z,37
2022-08-30T09:30:15.164Z,46
2022-08-30T09:31:24.332Z,39
2022-08-30T09:32:28.644Z,40
2022-08-30T09:33:33.297Z,41
2022-08-30T09:34:37.699Z,46
2022-08-30T09:35:42.783Z,42
2022-08-30T09:36:50.808Z,39
2022-08-30T09:37:55.407Z,48
2022-08-30T09:38:59.750Z,42
2022-08-30T09:40:05.632Z,53
2022-08-30T09:41:10.371Z,40
2022-08-30T09:42:23.119Z,35
2022-08-30T09:43:28.361Z,33
2022-08-30T09:44:32.502Z,25
2022-08-30T09:45:36.922Z,33
2022-08-30T09:46:41.556Z,28
2022-08-30T09:47:46.322Z,29
2022-08-30T09:49:54.547Z,32
2022-08-30T09:51:08.973Z,36
2022-08-30T09:52:13.749Z,38
2022-08-30T09:53:23.347Z,32
2022-08-30T09:55:32.720Z,35
2022-08-30T09:56:43.038Z,31
2022-08-30T09:57:48.160Z,29
2022-08-30T10:01:35.272Z,49
2022-08-30T10:02:44.812Z,48
2022-08-30T10:03:49.557Z,45
2022-08-30T10:05:04.201Z,53
2022-08-30T10:06:13.754Z,58
2022-08-30T10:07:28.850Z,56
2022-08-30T10:08:35.739Z,65
2022-08-30T10:09:45.425Z,66
2022-08-30T10:10:50.152Z,61
2022-08-30T10:11:59.977Z,55
2022-08-30T10:13:07.621Z,59
2022-08-30T10:14:15.044Z,58
2022-08-30T10:16:34.193Z,53
2022-08-30T10:17:39.546Z,48
2022-08-30T10:18:54.090Z,48
2022-08-30T10:20:03.638Z,54
2022-08-30T10:21:18.501Z,65
2022-08-30T10:22:24.297Z,54
2022-08-30T10:23:31.294Z,48
2022-08-30T10:24:35.806Z,57
2022-08-30T10:25:40.123Z,59
2022-08-30T10:26:44.979Z,54
2022-08-30T10:27:52.358Z,78
2022-08-30T10:28:59.586Z,62
2022-08-30T10:30:12.438Z,66
2022-08-30T10:31:16.791Z,52
2022-08-30T10:32:26.550Z,59
2022-08-30T10:33:31.759Z,51
2022-08-30T10:34:39.618Z,62
2022-08-30T10:35:54.146Z,51
2022-08-30T10:36:59.129Z,48
2022-08-30T10:38:08.838Z,46
2022-08-30T10:39:15.077Z,48
2022-08-30T10:40:17.861Z,49
2022-08-30T10:41:35.232Z,40
2022-08-30T10:42:40.307Z,38
2022-08-30T10:43:44.858Z,39
2022-08-30T10:44:53.174Z,40
2022-08-30T10:45:57.427Z,41
2022-08-30T10:47:02.181Z,49
2022-08-30T10:48:16.601Z,46
2022-08-30T10:49:26.482Z,51
2022-08-30T10:50:35.983Z,53
2022-08-30T10:51:37.543Z,58
2022-08-30T10:52:47.866Z,56
2022-08-30T10:53:57.690Z,54
2022-08-30T10:55:12.955Z,75
2022-08-30T10:56:17.483Z,85
2022-08-30T10:57:21.736Z,63
2022-08-30T10:58:26.467Z,57
2022-08-30T10:59:31.558Z,52
2022-08-30T11:00:37.119Z,53
2022-08-30T11:01:47.000Z,56
2022-08-30T11:03:01.563Z,48
2022-08-30T11:04:18.183Z,49
2022-08-30T11:05:30.671Z,45
2022-08-30T11:06:42.655Z,48
2022-08-30T11:07:55.899Z,53
2022-08-30T11:09:05.506Z,47
2022-08-30T11:10:10.050Z,57
2022-08-30T11:11:24.774Z,48
2022-08-30T11:12:39.611Z,41
2022-08-30T11:13:49.335Z,48
2022-08-30T11:14:54.090Z,49
2022-08-30T11:15:58.876Z,45
2022-08-30T11:17:07.006Z,64
2022-08-30T11:18:19.830Z,42
2022-08-30T11:19:24.527Z,37
2022-08-30T11:20:29.250Z,29
2022-08-30T11:21:36.559Z,27
2022-08-30T11:22:41.163Z,44
2022-08-30T11:23:45.654Z,49
2022-08-30T11:24:57.854Z,41
2022-08-30T11:26:12.133Z,26
2022-08-30T11:27:15.151Z,25
2022-08-30T11:28:29.759Z,34
2022-08-30T11:29:36.676Z,55
2022-08-30T11:30:43.686Z,37
2022-08-30T11:31:48.567Z,38
2022-08-30T11:32:52.887Z,36
2022-08-30T11:34:00.951Z,31
2022-08-30T11:35:04.431Z,59
2022-08-30T11:36:09.607Z,46
2022-08-30T11:37:23.927Z,49
2022-08-30T11:38:36.014Z,49
2022-08-30T11:39:40.447Z,55
2022-08-30T11:40:44.870Z,57
2022-08-30T11:41:51.623Z,70
2022-08-30T11:43:03.982Z,63
2022-08-30T11:44:18.338Z,61
2022-08-30T11:45:31.387Z,79
2022-08-30T11:47:41.934Z,82
2022-08-30T11:48:54.024Z,100
2022-08-30T11:50:01.131Z,75
2022-08-30T11:51:10.611Z,73
2022-08-30T11:52:27.798Z,78
2022-08-30T11:53:34.735Z,73
2022-08-30T11:54:44.034Z,60
2022-08-30T11:55:58.418Z,57
2022-08-30T11:57:12.910Z,56
2022-08-30T11:58:22.506Z,80
2022-08-30T11:59:34.974Z,56
2022-08-30T12:00:47.777Z,62
2022-08-30T12:01:50.437Z,53
2022-08-30T12:03:59.614Z,48
2022-08-30T12:05:16.754Z,37
2022-08-30T12:06:31.487Z,45
2022-08-30T12:07:40.907Z,50
2022-08-30T12:09:00.068Z,50
2022-08-30T12:10:01.922Z,79
2022-08-30T12:11:06.797Z,73
2022-08-30T12:12:11.304Z,70
2022-08-30T12:13:25.946Z,64
2022-08-30T12:14:35.534Z,66
2022-08-30T12:15:49.978Z,82
2022-08-30T12:18:15.531Z,81
2022-08-30T12:19:23.678Z,80
2022-08-30T12:20:28.385Z,75
2022-08-30T12:21:41.098Z,88
2022-08-30T12:22:45.854Z,91
2022-08-30T12:23:50.378Z,92
2022-08-30T12:24:59.874Z,90
2022-08-30T12:26:04.574Z,96
2022-08-30T12:27:16.826Z,85
2022-08-30T12:28:26.642Z,97
2022-08-30T12:29:31.282Z,100
2022-08-30T12:30:37.161Z,91
2022-08-30T12:31:41.934Z,106
2022-08-30T12:32:56.314Z,96
2022-08-30T12:34:01.011Z,93
2022-08-30T12:35:05.287Z,95
2022-08-30T12:36:09.516Z,99
2022-08-30T12:37:15.295Z,97
2022-08-30T12:38:26.814Z,98
2022-08-30T12:39:30.086Z,97
2022-08-30T12:40:37.038Z,119
2022-08-30T12:42:44.800Z,98
2022-08-30T12:43:52.384Z,98
2022-08-30T12:44:57.093Z,94
2022-08-30T12:46:07.381Z,99
2022-08-30T12:47:09.153Z,107
2022-08-30T12:48:14.065Z,97
2022-08-30T12:49:19.561Z,95
2022-08-30T12:50:23.842Z,92
2022-08-30T12:51:32.445Z,90
2022-08-30T12:53:40.317Z,93
2022-08-30T12:54:53.580Z,77
2022-08-30T12:57:34.769Z,96
2022-08-30T12:58:43.407Z,85
2022-08-30T12:59:54.418Z,76
2022-08-30T13:00:54.519Z,71
2022-08-30T13:01:58.853Z,70
2022-08-30T13:03:14.844Z,68
2022-08-30T13:04:27.270Z,70
2022-08-30T13:05:32.073Z,88
2022-08-30T13:06:41.267Z,96
2022-08-30T13:07:50.595Z,93
2022-08-30T13:08:55.838Z,94
2022-08-30T13:10:01.873Z,81
2022-08-30T13:11:09.207Z,82
2022-08-30T13:12:13.351Z,86
2022-08-30T13:13:25.055Z,89
2022-08-30T13:14:34.303Z,108
2022-08-30T13:15:41.383Z,113
2022-08-30T13:16:45.679Z,108
2022-08-30T13:17:50.118Z,116
2022-08-30T13:18:57.755Z,112
2022-08-30T13:20:12.285Z,109
2022-08-30T13:21:16.938Z,119
2022-08-30T13:22:21.660Z,117
2022-08-30T13:23:27.599Z,112
2022-08-30T13:24:31.799Z,115
2022-08-30T13:25:36.110Z,113
2022-08-30T13:26:40.351Z,120
2022-08-30T13:27:44.490Z,122
2022-08-30T13:28:53.099Z,121
2022-08-30T13:30:00.393Z,111
2022-08-30T13:31:07.378Z,118
2022-08-30T13:32:11.635Z,112
2022-08-30T13:33:16.075Z,108
2022-08-30T13:34:19.966Z,112
2022-08-30T13:35:24.167Z,100
2022-08-30T13:36:28.334Z,104
2022-08-30T13:37:50.901Z,102
2022-08-30T13:38:36.883Z,116
2022-08-30T13:39:41.083Z,98
2022-08-30T13:40:45.475Z,101
2022-08-30T13:41:49.690Z,90
2022-08-30T13:42:54.005Z,93
2022-08-30T13:44:14.023Z,99
2022-08-30T13:45:02.770Z,92
2022-08-30T13:46:07.166Z,86
2022-08-30T13:48:24.818Z,87
2022-08-30T13:50:31.068Z,101
2022-08-30T13:51:35.313Z,88
2022-08-30T13:52:40.156Z,77
2022-08-30T13:53:53.416Z,74
2022-08-30T13:54:49.687Z,56
2022-08-30T13:55:54.501Z,75
2022-08-30T13:56:58.797Z,70
2022-08-30T13:58:03.698Z,65
2022-08-30T13:59:08.233Z,76
2022-08-30T14:00:12.628Z,79
2022-08-30T14:01:16.764Z,79
2022-08-30T14:02:21.162Z,79
2022-08-30T14:03:25.695Z,80
2022-08-30T14:04:30.308Z,76
2022-08-30T14:05:48.653Z,80
2022-08-30T14:07:11.743Z,89
2022-08-30T14:07:43.037Z,85
2022-08-30T14:08:47.940Z,93
2022-08-30T14:09:53.123Z,103
2022-08-30T14:10:55.914Z,105
2022-08-30T14:12:00.025Z,104
2022-08-30T14:13:08.843Z,110
2022-08-30T14:14:23.554Z,114
2022-08-30T14:15:14.165Z,109
2022-08-30T14:16:33.807Z,94
2022-08-30T14:17:22.759Z,93
2022-08-30T14:18:27.186Z,94
2022-08-30T14:19:31.638Z,105
2022-08-30T14:20:38.361Z,102
2022-08-30T14:21:40.077Z,100
2022-08-30T14:22:44.961Z,95
2022-08-30T14:23:49.277Z,91
2022-08-30T14:24:53.501Z,102
2022-08-30T14:25:57.660Z,101
2022-08-30T14:27:02.189Z,104
2022-08-30T14:28:06.605Z,119
2022-08-30T14:29:11.101Z,122
2022-08-30T14:30:17.838Z,114
2022-08-30T14:31:20.607Z,116
2022-08-30T14:32:24.805Z,109
2022-08-30T14:33:29.289Z,105
2022-08-30T14:34:33.497Z,101
2022-08-30T14:35:37.865Z,105
2022-08-30T14:36:42.250Z,109
2022-08-30T14:37:46.853Z,107
2022-08-30T14:38:50.957Z,101
2022-08-30T14:39:55.189Z,99
2022-08-30T14:41:00.821Z,99
2022-08-30T14:42:07.471Z,104
2022-08-30T14:43:08.705Z,110
2022-08-30T14:44:12.965Z,118
2022-08-30T14:45:17.245Z,115
2022-08-30T14:46:21.872Z,116
2022-08-30T14:47:29.684Z,112
2022-08-30T14:48:30.197Z,115
2022-08-30T14:49:34.749Z,113
2022-08-30T14:50:39.232Z,116
2022-08-30T14:51:43.809Z,115
2022-08-30T14:52:48.433Z,122
2022-08-30T14:53:53.245Z,118
2022-08-30T14:55:00.323Z,119
2022-08-30T14:56:03.841Z,125
2022-08-30T14:57:12.045Z,127
2022-08-30T14:58:16.848Z,122
2022-08-30T14:59:21.201Z,122
2022-08-30T15:00:25.810Z,113
2022-08-30T15:01:30.428Z,111
2022-08-30T15:02:34.966Z,111
2022-08-30T15:03:39.544Z,110
2022-08-30T15:04:44.030Z,107
2022-08-30T15:05:48.585Z,112
2022-08-30T15:06:52.797Z,111
2022-08-30T15:07:57.077Z,116
2022-08-30T15:09:02.951Z,121
2022-08-30T15:10:07.481Z,122
2022-08-30T15:11:12.098Z,120
2022-08-30T15:12:16.549Z,126
2022-08-30T15:13:21.041Z,124
2022-08-30T15:14:25.701Z,124
2022-08-30T15:15:30.281Z,125
2022-08-30T15:16:34.816Z,125
2022-08-30T15:17:39.537Z,125
2022-08-30T15:18:44.149Z,127
2022-08-30T15:19:48.583Z,123
2022-08-30T15:20:53.681Z,127
2022-08-30T15:21:58.161Z,123
2022-08-30T15:23:02.337Z,117
2022-08-30T15:24:06.722Z,118
2022-08-30T15:25:11.906Z,123
2022-08-30T15:26:17.202Z,122
2022-08-30T15:27:22.097Z,122
2022-08-30T15:28:26.461Z,124
2022-08-30T15:29:31.746Z,121
2022-08-30T15:30:35.181Z,123
2022-08-30T15:31:39.509Z,119
2022-08-30T15:32:43.857Z,118
2022-08-30T15:33:48.124Z,120
2022-08-30T15:35:56.306Z,125
2022-08-30T15:37:00.600Z,121
2022-08-30T15:38:05.125Z,121
2022-08-30T15:39:10.202Z,122
2022-08-30T15:40:14.675Z,121
2022-08-30T15:41:19.266Z,117
2022-08-30T15:42:23.586Z,120
2022-08-30T15:43:28.113Z,124
2022-08-30T15:44:32.360Z,121
2022-08-30T15:45:36.473Z,121
2022-08-30T15:46:41.305Z,122
2022-08-30T15:47:45.629Z,124
2022-08-30T15:48:50.429Z,127
2022-08-30T15:49:55.152Z,122
2022-08-30T15:50:59.577Z,122
2022-08-30T15:52:04.101Z,120
2022-08-30T15:53:08.640Z,118
2022-08-30T15:54:13.114Z,115
2022-08-30T15:55:17.913Z,111
2022-08-30T15:56:22.609Z,109
2022-08-30T15:57:27.384Z,109
2022-08-30T15:58:32.321Z,108
2022-08-30T15:59:36.902Z,105
2022-08-30T16:00:44.763Z,106
2022-08-30T16:01:47.423Z,106
2022-08-30T16:02:50.676Z,105
2022-08-30T16:03:55.380Z,104